sensor_id;sensor_type;location;lat;lon;timestamp;pressure;altitude;pressure_sealevel;temperature;humidity
35704;BME280;21820;51.112;13.762;2023-07-31T00:00:55;99134.09;;;24.89;51.27
35704;BME280;21820;51.112;13.762;2023-07-31T00:03:20;99130.34;;;24.84;51.67
35704;BME280;21820;51.112;13.762;2023-07-31T00:05:45;99136.13;;;25.10;54.61
35704;BME280;21820;51.112;13.762;2023-07-31T00:08:11;99129.50;;;25.22;54.67
35704;BME280;21820;51.112;13.762;2023-07-31T00:10:36;99125.50;;;25.26;54.56
35704;BME280;21820;51.112;13.762;2023-07-31T00:13:01;99105.97;;;25.20;54.85
35704;BME280;21820;51.112;13.762;2023-07-31T00:15:27;99123.81;;;25.33;54.66
35704;BME280;21820;51.112;13.762;2023-07-31T00:17:52;99121.88;;;25.35;54.89
35704;BME280;21820;51.112;13.762;2023-07-31T00:20:17;99120.84;;;25.36;54.65
35704;BME280;21820;51.112;13.762;2023-07-31T00:22:43;99119.06;;;25.36;55.26
35704;BME280;21820;51.112;13.762;2023-07-31T00:25:08;99115.41;;;25.37;55.15
35704;BME280;21820;51.112;13.762;2023-07-31T00:27:33;99118.88;;;25.38;54.99
35704;BME280;21820;51.112;13.762;2023-07-31T00:29:59;99125.16;;;25.37;54.77
35704;BME280;21820;51.112;13.762;2023-07-31T00:32:24;99122.50;;;25.37;55.15
35704;BME280;21820;51.112;13.762;2023-07-31T00:34:50;99116.59;;;25.35;55.07
35704;BME280;21820;51.112;13.762;2023-07-31T00:37:15;99113.19;;;24.96;51.67
35704;BME280;21820;51.112;13.762;2023-07-31T00:39:40;99116.56;;;24.82;51.00
35704;BME280;21820;51.112;13.762;2023-07-31T00:42:06;99109.00;;;24.79;50.80
35704;BME280;21820;51.112;13.762;2023-07-31T00:44:32;99108.44;;;24.91;53.97
35704;BME280;21820;51.112;13.762;2023-07-31T00:46:57;99093.91;;;25.03;54.25
35704;BME280;21820;51.112;13.762;2023-07-31T00:49:25;99113.69;;;25.22;54.68
35704;BME280;21820;51.112;13.762;2023-07-31T00:51:51;99118.25;;;25.28;54.89
35704;BME280;21820;51.112;13.762;2023-07-31T00:54:16;99109.81;;;25.32;55.07
35704;BME280;21820;51.112;13.762;2023-07-31T00:56:45;99106.41;;;25.32;55.33
35704;BME280;21820;51.112;13.762;2023-07-31T00:59:10;99107.84;;;25.34;54.88
35704;BME280;21820;51.112;13.762;2023-07-31T01:01:36;99101.75;;;25.34;55.42
35704;BME280;21820;51.112;13.762;2023-07-31T01:04:01;99095.69;;;25.33;55.31
35704;BME280;21820;51.112;13.762;2023-07-31T01:09:11;99101.75;;;25.34;55.21
35704;BME280;21820;51.112;13.762;2023-07-31T01:11:49;99103.09;;;25.38;55.44
35704;BME280;21820;51.112;13.762;2023-07-31T01:14:17;99093.72;;;25.35;55.18
35704;BME280;21820;51.112;13.762;2023-07-31T01:16:42;99090.06;;;25.14;53.06
35704;BME280;21820;51.112;13.762;2023-07-31T01:19:09;99091.22;;;24.89;51.33
35704;BME280;21820;51.112;13.762;2023-07-31T01:26:45;99083.88;;;25.07;54.96
35704;BME280;21820;51.112;13.762;2023-07-31T01:29:17;99081.47;;;25.20;54.93
35704;BME280;21820;51.112;13.762;2023-07-31T01:31:48;99083.41;;;25.26;55.10
35704;BME280;21820;51.112;13.762;2023-07-31T01:34:17;99082.06;;;25.30;55.03
35704;BME280;21820;51.112;13.762;2023-07-31T01:36:43;99081.06;;;25.31;55.07
35704;BME280;21820;51.112;13.762;2023-07-31T01:39:08;99081.72;;;25.33;54.99
35704;BME280;21820;51.112;13.762;2023-07-31T01:41:34;99086.78;;;25.34;55.41
35704;BME280;21820;51.112;13.762;2023-07-31T01:44:00;99087.66;;;25.35;54.77
35704;BME280;21820;51.112;13.762;2023-07-31T01:46:25;99072.66;;;25.35;54.91
35704;BME280;21820;51.112;13.762;2023-07-31T01:48:50;99068.38;;;25.34;55.31
35704;BME280;21820;51.112;13.762;2023-07-31T01:51:16;99080.09;;;25.32;55.00
35704;BME280;21820;51.112;13.762;2023-07-31T01:53:41;99061.19;;;25.28;54.84
35704;BME280;21820;51.112;13.762;2023-07-31T01:56:06;99067.41;;;25.35;55.59
35704;BME280;21820;51.112;13.762;2023-07-31T01:58:32;99049.19;;;24.81;51.86
35704;BME280;21820;51.112;13.762;2023-07-31T02:00:57;99083.69;;;24.86;51.05
35704;BME280;21820;51.112;13.762;2023-07-31T02:03:22;99073.00;;;24.79;51.35
35704;BME280;21820;51.112;13.762;2023-07-31T02:05:49;99075.09;;;24.92;54.23
35704;BME280;21820;51.112;13.762;2023-07-31T02:08:14;99074.63;;;25.11;54.29
35704;BME280;21820;51.112;13.762;2023-07-31T02:10:40;99067.13;;;25.22;54.70
35704;BME280;21820;51.112;13.762;2023-07-31T02:13:06;99069.25;;;25.27;54.81
35704;BME280;21820;51.112;13.762;2023-07-31T02:15:32;99051.47;;;25.29;55.14
35704;BME280;21820;51.112;13.762;2023-07-31T02:17:57;99064.28;;;25.32;54.56
35704;BME280;21820;51.112;13.762;2023-07-31T02:20:23;99055.38;;;25.33;54.64
35704;BME280;21820;51.112;13.762;2023-07-31T02:22:48;99049.13;;;25.34;54.71
35704;BME280;21820;51.112;13.762;2023-07-31T02:25:14;99053.59;;;25.33;55.30
35704;BME280;21820;51.112;13.762;2023-07-31T02:27:39;99058.84;;;25.33;55.50
35704;BME280;21820;51.112;13.762;2023-07-31T02:30:05;99059.03;;;25.32;54.97
35704;BME280;21820;51.112;13.762;2023-07-31T02:32:30;99052.75;;;25.33;55.56
35704;BME280;21820;51.112;13.762;2023-07-31T02:34:56;99060.66;;;25.33;55.27
35704;BME280;21820;51.112;13.762;2023-07-31T02:37:21;99044.94;;;25.02;51.79
35704;BME280;21820;51.112;13.762;2023-07-31T02:39:47;99062.97;;;24.83;51.43
35704;BME280;21820;51.112;13.762;2023-07-31T02:42:13;99070.72;;;24.76;50.99
35704;BME280;21820;51.112;13.762;2023-07-31T02:44:39;99056.78;;;24.76;51.42
35704;BME280;21820;51.112;13.762;2023-07-31T02:47:04;99060.56;;;25.04;54.62
35704;BME280;21820;51.112;13.762;2023-07-31T02:49:29;99059.78;;;25.18;55.12
35704;BME280;21820;51.112;13.762;2023-07-31T02:51:55;99046.56;;;25.26;54.73
35704;BME280;21820;51.112;13.762;2023-07-31T02:54:20;99058.38;;;25.30;55.08
35704;BME280;21820;51.112;13.762;2023-07-31T02:56:47;99053.91;;;25.30;54.83
35704;BME280;21820;51.112;13.762;2023-07-31T02:59:12;99048.53;;;25.24;54.71
35704;BME280;21820;51.112;13.762;2023-07-31T03:01:37;99056.41;;;25.32;54.73
35704;BME280;21820;51.112;13.762;2023-07-31T03:04:03;99059.66;;;25.34;55.31
35704;BME280;21820;51.112;13.762;2023-07-31T03:06:29;99052.75;;;25.33;54.79
35704;BME280;21820;51.112;13.762;2023-07-31T03:08:54;99041.66;;;25.23;55.11
35704;BME280;21820;51.112;13.762;2023-07-31T03:11:19;99058.84;;;25.33;55.11
35704;BME280;21820;51.112;13.762;2023-07-31T03:13:45;99049.38;;;25.24;55.63
35704;BME280;21820;51.112;13.762;2023-07-31T03:16:10;99070.34;;;25.32;55.71
35704;BME280;21820;51.112;13.762;2023-07-31T03:18:35;99076.03;;;24.99;51.66
35704;BME280;21820;51.112;13.762;2023-07-31T03:21:01;99072.38;;;24.77;51.25
35704;BME280;21820;51.112;13.762;2023-07-31T03:23:26;99073.53;;;24.75;51.61
35704;BME280;21820;51.112;13.762;2023-07-31T03:26:02;99072.16;;;24.87;54.63
35704;BME280;21820;51.112;13.762;2023-07-31T03:28:29;99061.53;;;25.03;54.69
35704;BME280;21820;51.112;13.762;2023-07-31T03:30:55;99070.31;;;25.18;54.46
35704;BME280;21820;51.112;13.762;2023-07-31T03:33:20;99072.88;;;25.26;54.65
35704;BME280;21820;51.112;13.762;2023-07-31T03:35:45;99069.69;;;25.30;54.49
35704;BME280;21820;51.112;13.762;2023-07-31T03:38:11;99068.72;;;25.31;54.79
35704;BME280;21820;51.112;13.762;2023-07-31T03:40:36;99057.56;;;25.29;54.62
35704;BME280;21820;51.112;13.762;2023-07-31T03:43:01;99070.53;;;25.31;55.05
35704;BME280;21820;51.112;13.762;2023-07-31T03:45:27;99072.19;;;25.32;55.48
35704;BME280;21820;51.112;13.762;2023-07-31T03:47:52;99076.63;;;25.31;55.21
35704;BME280;21820;51.112;13.762;2023-07-31T03:50:19;99081.06;;;25.31;55.48
35704;BME280;21820;51.112;13.762;2023-07-31T03:52:45;99075.78;;;25.31;55.46
35704;BME280;21820;51.112;13.762;2023-07-31T03:55:10;99071.34;;;25.31;55.37
35704;BME280;21820;51.112;13.762;2023-07-31T03:57:35;99069.69;;;25.30;55.63
35704;BME280;21820;51.112;13.762;2023-07-31T04:00:01;99073.31;;;24.84;52.04
35704;BME280;21820;51.112;13.762;2023-07-31T04:02:26;99078.00;;;24.74;51.47
35704;BME280;21820;51.112;13.762;2023-07-31T04:04:51;99064.38;;;24.71;51.64
35704;BME280;21820;51.112;13.762;2023-07-31T04:07:17;99066.19;;;24.93;54.26
35704;BME280;21820;51.112;13.762;2023-07-31T04:09:42;99065.75;;;25.12;54.73
35704;BME280;21820;51.112;13.762;2023-07-31T04:12:07;99072.56;;;25.21;54.78
35704;BME280;21820;51.112;13.762;2023-07-31T04:14:33;99065.16;;;25.24;54.74
35704;BME280;21820;51.112;13.762;2023-07-31T04:16:58;99059.53;;;25.27;54.50
35704;BME280;21820;51.112;13.762;2023-07-31T04:19:24;99053.13;;;25.30;54.62
35704;BME280;21820;51.112;13.762;2023-07-31T04:21:49;99065.28;;;25.31;54.81
35704;BME280;21820;51.112;13.762;2023-07-31T04:24:14;99053.75;;;25.32;54.75
35704;BME280;21820;51.112;13.762;2023-07-31T04:26:40;99044.09;;;25.24;55.12
35704;BME280;21820;51.112;13.762;2023-07-31T04:29:05;99050.31;;;25.31;55.13
35704;BME280;21820;51.112;13.762;2023-07-31T04:31:31;99053.38;;;25.20;55.23
35704;BME280;21820;51.112;13.762;2023-07-31T04:33:56;99042.38;;;25.17;56.63
35704;BME280;21820;51.112;13.762;2023-07-31T04:36:21;99035.09;;;25.19;56.57
35704;BME280;21820;51.112;13.762;2023-07-31T04:38:47;99031.13;;;25.23;56.65
35704;BME280;21820;51.112;13.762;2023-07-31T04:41:12;99030.78;;;24.81;52.44
35704;BME280;21820;51.112;13.762;2023-07-31T04:43:38;99036.72;;;24.75;52.10
35704;BME280;21820;51.112;13.762;2023-07-31T04:46:05;99020.94;;;24.75;51.45
35704;BME280;21820;51.112;13.762;2023-07-31T04:48:30;99016.75;;;24.88;54.10
35704;BME280;21820;51.112;13.762;2023-07-31T04:50:55;99020.38;;;25.10;54.52
35704;BME280;21820;51.112;13.762;2023-07-31T04:53:21;99017.69;;;25.18;55.13
35704;BME280;21820;51.112;13.762;2023-07-31T04:55:46;99015.34;;;25.23;56.12
35704;BME280;21820;51.112;13.762;2023-07-31T04:58:11;99012.34;;;25.26;55.82
35704;BME280;21820;51.112;13.762;2023-07-31T05:00:37;99011.38;;;25.27;55.87
35704;BME280;21820;51.112;13.762;2023-07-31T05:03:02;99013.81;;;25.28;56.08
35704;BME280;21820;51.112;13.762;2023-07-31T05:05:27;99004.75;;;25.31;56.84
35704;BME280;21820;51.112;13.762;2023-07-31T05:07:53;99012.63;;;25.31;56.91
35704;BME280;21820;51.112;13.762;2023-07-31T05:18:31;99008.09;;;24.80;56.42
35704;BME280;21820;51.112;13.762;2023-07-31T05:20:56;99017.69;;;24.65;57.12
35704;BME280;21820;51.112;13.762;2023-07-31T05:23:22;99012.94;;;24.60;57.21
35704;BME280;21820;51.112;13.762;2023-07-31T05:25:47;99009.91;;;24.48;54.03
35704;BME280;21820;51.112;13.762;2023-07-31T05:28:13;99002.53;;;24.44;53.41
35704;BME280;21820;51.112;13.762;2023-07-31T05:30:38;99008.59;;;24.44;53.09
35704;BME280;21820;51.112;13.762;2023-07-31T05:33:03;99004.00;;;24.46;52.45
35704;BME280;21820;51.112;13.762;2023-07-31T05:35:29;99000.00;;;24.59;55.14
35704;BME280;21820;51.112;13.762;2023-07-31T05:37:54;99006.53;;;24.71;56.97
35704;BME280;21820;51.112;13.762;2023-07-31T05:40:19;98996.13;;;24.77;56.84
35704;BME280;21820;51.112;13.762;2023-07-31T05:42:45;99004.50;;;24.81;57.26
35704;BME280;21820;51.112;13.762;2023-07-31T05:45:10;98972.81;;;24.74;57.10
35704;BME280;21820;51.112;13.762;2023-07-31T05:47:36;99000.50;;;24.85;57.00
35704;BME280;21820;51.112;13.762;2023-07-31T05:50:01;98999.34;;;24.87;57.40
35704;BME280;21820;51.112;13.762;2023-07-31T05:52:27;98993.28;;;24.87;57.32
35704;BME280;21820;51.112;13.762;2023-07-31T05:54:54;98984.38;;;24.88;57.86
35704;BME280;21820;51.112;13.762;2023-07-31T05:57:19;98998.16;;;24.90;57.38
35704;BME280;21820;51.112;13.762;2023-07-31T05:59:45;98998.00;;;24.91;58.00
35704;BME280;21820;51.112;13.762;2023-07-31T06:02:11;98989.94;;;24.93;58.02
35704;BME280;21820;51.112;13.762;2023-07-31T06:04:36;98987.28;;;24.93;58.07
35704;BME280;21820;51.112;13.762;2023-07-31T06:07:01;98983.69;;;24.94;58.53
35704;BME280;21820;51.112;13.762;2023-07-31T06:09:28;98976.19;;;24.83;56.54
35704;BME280;21820;51.112;13.762;2023-07-31T06:11:53;98987.50;;;24.61;53.33
35704;BME280;21820;51.112;13.762;2023-07-31T06:14:18;98976.75;;;24.48;53.23
35704;BME280;21820;51.112;13.762;2023-07-31T06:16:44;98992.28;;;24.57;52.04
35704;BME280;21820;51.112;13.762;2023-07-31T06:19:10;98991.09;;;24.60;54.19
35704;BME280;21820;51.112;13.762;2023-07-31T06:21:35;98989.41;;;24.75;55.90
35704;BME280;21820;51.112;13.762;2023-07-31T06:24:03;98991.97;;;24.83;56.25
35704;BME280;21820;51.112;13.762;2023-07-31T06:26:28;98987.00;;;24.88;56.92
35704;BME280;21820;51.112;13.762;2023-07-31T06:28:53;98986.81;;;24.89;57.54
35704;BME280;21820;51.112;13.762;2023-07-31T06:31:19;98989.28;;;24.91;57.44
35704;BME280;21820;51.112;13.762;2023-07-31T06:33:48;99000.81;;;24.90;57.70
35704;BME280;21820;51.112;13.762;2023-07-31T06:36:13;98985.19;;;24.88;57.34
35704;BME280;21820;51.112;13.762;2023-07-31T06:38:38;98998.16;;;24.90;57.62
35704;BME280;21820;51.112;13.762;2023-07-31T06:41:04;98999.78;;;24.91;58.00
35704;BME280;21820;51.112;13.762;2023-07-31T06:43:29;98984.38;;;24.88;58.25
35704;BME280;21820;51.112;13.762;2023-07-31T06:45:54;98979.81;;;24.82;58.04
35704;BME280;21820;51.112;13.762;2023-07-31T06:48:20;98990.94;;;24.92;58.26
35704;BME280;21820;51.112;13.762;2023-07-31T06:50:45;98983.03;;;24.92;57.68
35704;BME280;21820;51.112;13.762;2023-07-31T06:53:10;98988.31;;;24.92;57.92
35704;BME280;21820;51.112;13.762;2023-07-31T06:55:36;98987.28;;;24.93;57.79
35704;BME280;21820;51.112;13.762;2023-07-31T06:58:01;98989.78;;;24.64;53.40
35704;BME280;21820;51.112;13.762;2023-07-31T07:00:27;98977.06;;;24.44;52.28
35704;BME280;21820;51.112;13.762;2023-07-31T07:02:52;98992.94;;;24.51;52.73
35704;BME280;21820;51.112;13.762;2023-07-31T07:05:18;98995.09;;;24.56;54.53
35704;BME280;21820;51.112;13.762;2023-07-31T07:07:43;98993.03;;;24.74;55.96
35704;BME280;21820;51.112;13.762;2023-07-31T07:10:09;98992.97;;;24.82;56.51
35704;BME280;21820;51.112;13.762;2023-07-31T07:12:35;98994.88;;;24.88;56.86
35704;BME280;21820;51.112;13.762;2023-07-31T07:15:01;98999.00;;;24.90;56.50
35704;BME280;21820;51.112;13.762;2023-07-31T07:17:28;98998.34;;;24.88;56.86
35704;BME280;21820;51.112;13.762;2023-07-31T07:19:53;98992.91;;;24.90;57.05
35704;BME280;21820;51.112;13.762;2023-07-31T07:22:20;98999.78;;;24.91;56.63
35704;BME280;21820;51.112;13.762;2023-07-31T07:24:45;99003.25;;;24.91;57.33
35704;BME280;21820;51.112;13.762;2023-07-31T07:27:10;98976.19;;;24.83;57.54
35704;BME280;21820;51.112;13.762;2023-07-31T07:29:37;98990.94;;;24.92;57.44
35704;BME280;21820;51.112;13.762;2023-07-31T07:32:03;98990.09;;;24.91;57.43
35704;BME280;21820;51.112;13.762;2023-07-31T07:34:29;98987.47;;;24.91;57.53
35704;BME280;21820;51.112;13.762;2023-07-31T07:36:54;98984.38;;;24.88;57.44
35704;BME280;21820;51.112;13.762;2023-07-31T07:39:20;98983.88;;;24.92;57.38
35704;BME280;21820;51.112;13.762;2023-07-31T07:41:46;98980.56;;;24.68;53.28
35704;BME280;21820;51.112;13.762;2023-07-31T07:44:12;98988.47;;;24.60;52.48
35704;BME280;21820;51.112;13.762;2023-07-31T07:46:37;98966.22;;;24.48;52.05
35704;BME280;21820;51.112;13.762;2023-07-31T07:49:02;98978.59;;;24.62;51.98
35704;BME280;21820;51.112;13.762;2023-07-31T07:51:28;98987.78;;;24.74;55.10
35704;BME280;21820;51.112;13.762;2023-07-31T07:53:55;98990.34;;;24.82;55.77
35704;BME280;21820;51.112;13.762;2023-07-31T07:56:21;98987.19;;;24.86;56.39
35704;BME280;21820;51.112;13.762;2023-07-31T07:58:48;98997.34;;;24.89;56.67
35704;BME280;21820;51.112;13.762;2023-07-31T08:01:14;98997.81;;;24.93;56.33
35704;BME280;21820;51.112;13.762;2023-07-31T08:03:39;98997.16;;;24.91;56.97
35704;BME280;21820;51.112;13.762;2023-07-31T08:06:05;98998.34;;;24.88;56.67
35704;BME280;21820;51.112;13.762;2023-07-31T08:08:30;99012.78;;;24.92;56.93
35704;BME280;21820;51.112;13.762;2023-07-31T08:10:55;99004.09;;;24.92;57.24
35704;BME280;21820;51.112;13.762;2023-07-31T08:13:21;99005.88;;;24.91;57.48
35704;BME280;21820;51.112;13.762;2023-07-31T08:15:46;99005.88;;;24.91;57.17
35704;BME280;21820;51.112;13.762;2023-07-31T08:18:12;99012.16;;;24.90;56.89
35704;BME280;21820;51.112;13.762;2023-07-31T08:20:37;99002.78;;;24.88;57.09
35704;BME280;21820;51.112;13.762;2023-07-31T08:23:03;99009.50;;;24.90;57.08
35704;BME280;21820;51.112;13.762;2023-07-31T08:25:29;98999.63;;;24.70;54.24
35704;BME280;21820;51.112;13.762;2023-07-31T08:27:54;99007.22;;;24.57;53.11
35704;BME280;21820;51.112;13.762;2023-07-31T08:30:21;99003.63;;;24.58;52.10
35704;BME280;21820;51.112;13.762;2023-07-31T08:32:46;99005.25;;;24.59;52.09
35704;BME280;21820;51.112;13.762;2023-07-31T08:35:12;99000.25;;;24.72;54.97
35704;BME280;21820;51.112;13.762;2023-07-31T08:37:38;98996.75;;;24.79;55.83
35704;BME280;21820;51.112;13.762;2023-07-31T08:40:04;99002.47;;;24.83;56.70
35704;BME280;21820;51.112;13.762;2023-07-31T08:42:29;98986.59;;;24.76;56.80
35704;BME280;21820;51.112;13.762;2023-07-31T08:44:55;99010.66;;;24.88;56.99
35704;BME280;21820;51.112;13.762;2023-07-31T08:47:21;99008.69;;;24.90;56.33
35704;BME280;21820;51.112;13.762;2023-07-31T08:49:47;99008.69;;;24.90;56.59
35704;BME280;21820;51.112;13.762;2023-07-31T08:52:13;99005.06;;;24.91;56.84
35704;BME280;21820;51.112;13.762;2023-07-31T08:54:39;98977.00;;;24.83;57.10
35704;BME280;21820;51.112;13.762;2023-07-31T08:57:05;98994.22;;;24.94;56.79
35704;BME280;21820;51.112;13.762;2023-07-31T08:59:32;98975.88;;;24.86;56.65
35704;BME280;21820;51.112;13.762;2023-07-31T09:02:05;98995.84;;;24.95;57.34
35704;BME280;21820;51.112;13.762;2023-07-31T09:04:31;98992.56;;;24.93;57.04
35704;BME280;21820;51.112;13.762;2023-07-31T09:07:00;98994.22;;;24.94;57.64
35704;BME280;21820;51.112;13.762;2023-07-31T09:09:26;98992.56;;;24.93;56.83
35704;BME280;21820;51.112;13.762;2023-07-31T09:11:52;99006.19;;;24.66;53.64
35704;BME280;21820;51.112;13.762;2023-07-31T09:14:18;99000.81;;;24.59;52.54
35704;BME280;21820;51.112;13.762;2023-07-31T09:16:57;98998.69;;;24.55;52.79
35704;BME280;21820;51.112;13.762;2023-07-31T09:19:32;98991.09;;;24.60;54.59
35704;BME280;21820;51.112;13.762;2023-07-31T09:21:59;98992.38;;;24.72;55.77
35704;BME280;21820;51.112;13.762;2023-07-31T09:24:27;98977.59;;;24.71;56.64
35704;BME280;21820;51.112;13.762;2023-07-31T09:26:57;98985.56;;;24.85;56.57
35704;BME280;21820;51.112;13.762;2023-07-31T09:29:24;98975.69;;;24.87;56.52
35704;BME280;21820;51.112;13.762;2023-07-31T09:31:52;98971.88;;;24.90;56.69
35704;BME280;21820;51.112;13.762;2023-07-31T09:34:18;98974.44;;;24.98;57.06
35704;BME280;21820;51.112;13.762;2023-07-31T09:36:44;98979.34;;;25.01;57.36
35704;BME280;21820;51.112;13.762;2023-07-31T09:39:10;98965.56;;;24.99;57.30
35704;BME280;21820;51.112;13.762;2023-07-31T09:41:36;98974.06;;;25.01;57.47
35704;BME280;21820;51.112;13.762;2023-07-31T09:44:03;98959.59;;;25.05;57.49
35704;BME280;21820;51.112;13.762;2023-07-31T09:46:28;98964.84;;;25.05;57.11
35704;BME280;21820;51.112;13.762;2023-07-31T09:49:02;98964.66;;;25.06;57.62
35704;BME280;21820;51.112;13.762;2023-07-31T09:51:28;98959.22;;;25.08;57.14
35704;BME280;21820;51.112;13.762;2023-07-31T09:53:56;98956.41;;;25.09;57.43
35704;BME280;21820;51.112;13.762;2023-07-31T09:56:21;98958.44;;;24.85;54.23
35704;BME280;21820;51.112;13.762;2023-07-31T09:58:46;98964.13;;;24.66;53.00
35704;BME280;21820;51.112;13.762;2023-07-31T10:01:12;98962.84;;;24.62;52.30
35704;BME280;21820;51.112;13.762;2023-07-31T10:03:38;98968.09;;;24.62;52.70
35704;BME280;21820;51.112;13.762;2023-07-31T10:06:04;98968.38;;;24.75;56.14
35704;BME280;21820;51.112;13.762;2023-07-31T10:08:30;98960.88;;;24.86;56.04
35704;BME280;21820;51.112;13.762;2023-07-31T10:10:58;98957.38;;;24.94;56.91
35704;BME280;21820;51.112;13.762;2023-07-31T10:13:23;98965.56;;;24.99;56.93
35704;BME280;21820;51.112;13.762;2023-07-31T10:15:49;98955.53;;;25.02;57.30
35704;BME280;21820;51.112;13.762;2023-07-31T10:18:14;98950.88;;;25.04;56.99
35704;BME280;21820;51.112;13.762;2023-07-31T10:20:40;98945.63;;;25.04;57.05
35704;BME280;21820;51.112;13.762;2023-07-31T10:23:06;98955.16;;;25.05;56.90
35704;BME280;21820;51.112;13.762;2023-07-31T10:25:31;98944.47;;;25.07;56.92
35704;BME280;21820;51.112;13.762;2023-07-31T10:27:57;98947.72;;;25.09;57.28
35704;BME280;21820;51.112;13.762;2023-07-31T10:30:26;98943.09;;;25.11;57.33
35704;BME280;21820;51.112;13.762;2023-07-31T10:32:52;98934.41;;;25.10;57.33
35704;BME280;21820;51.112;13.762;2023-07-31T10:35:18;98939.66;;;25.10;57.60
35704;BME280;21820;51.112;13.762;2023-07-31T10:37:44;98930.13;;;25.09;57.33
35704;BME280;21820;51.112;13.762;2023-07-31T10:40:10;98932.94;;;25.08;57.60
35704;BME280;21820;51.112;13.762;2023-07-31T10:42:46;98932.56;;;24.74;52.92
35704;BME280;21820;51.112;13.762;2023-07-31T10:45:12;98932.28;;;24.69;53.72
35704;BME280;21820;51.112;13.762;2023-07-31T10:47:39;98900.34;;;24.49;51.68
35704;BME280;21820;51.112;13.762;2023-07-31T10:52:43;98912.28;;;24.82;56.38
35704;BME280;21820;51.112;13.762;2023-07-31T10:57:40;98921.19;;;24.96;56.49
35704;BME280;21820;51.112;13.762;2023-07-31T11:00:22;98921.03;;;24.97;57.20
35704;BME280;21820;51.112;13.762;2023-07-31T11:05:44;98918.22;;;24.99;57.37
35704;BME280;21820;51.112;13.762;2023-07-31T11:08:14;98907.72;;;24.99;57.28
35704;BME280;21820;51.112;13.762;2023-07-31T11:10:40;98914.22;;;25.03;57.54
35704;BME280;21820;51.112;13.762;2023-07-31T11:13:05;98907.34;;;25.02;57.33
35704;BME280;21820;51.112;13.762;2023-07-31T11:15:31;98900.09;;;25.04;57.19
35704;BME280;21820;51.112;13.762;2023-07-31T11:17:56;98898.09;;;25.06;57.76
35704;BME280;21820;51.112;13.762;2023-07-31T11:20:23;98902.56;;;25.05;57.27
35704;BME280;21820;51.112;13.762;2023-07-31T11:22:49;98907.00;;;25.05;58.00
35704;BME280;21820;51.112;13.762;2023-07-31T11:25:14;98894.84;;;25.04;58.01
35704;BME280;21820;51.112;13.762;2023-07-31T11:27:39;98895.47;;;24.69;53.10
35704;BME280;21820;51.112;13.762;2023-07-31T11:30:09;98902.56;;;24.60;52.70
35704;BME280;21820;51.112;13.762;2023-07-31T11:32:36;98891.94;;;24.54;51.73
35704;BME280;21820;51.112;13.762;2023-07-31T11:35:01;98900.22;;;24.65;55.26
35704;BME280;21820;51.112;13.762;2023-07-31T11:37:39;98900.13;;;24.81;55.90
35704;BME280;21820;51.112;13.762;2023-07-31T11:40:04;98904.69;;;24.87;56.84
35704;BME280;21820;51.112;13.762;2023-07-31T11:42:30;98892.97;;;24.90;56.62
35704;BME280;21820;51.112;13.762;2023-07-31T11:44:55;98904.44;;;24.97;56.91
35704;BME280;21820;51.112;13.762;2023-07-31T11:47:20;98899.63;;;25.00;57.43
35704;BME280;21820;51.112;13.762;2023-07-31T11:49:46;98896.81;;;25.02;57.29
35704;BME280;21820;51.112;13.762;2023-07-31T11:52:11;98885.47;;;25.01;57.13
35704;BME280;21820;51.112;13.762;2023-07-31T11:54:37;98882.66;;;25.03;57.72
35704;BME280;21820;51.112;13.762;2023-07-31T11:57:02;98878.25;;;25.03;57.01
35704;BME280;21820;51.112;13.762;2023-07-31T11:59:28;98874.41;;;25.06;57.78
35704;BME280;21820;51.112;13.762;2023-07-31T12:01:53;98869.16;;;25.06;57.83
35704;BME280;21820;51.112;13.762;2023-07-31T12:04:19;98867.34;;;25.06;57.76
35704;BME280;21820;51.112;13.762;2023-07-31T12:06:46;98863.91;;;25.06;57.16
35704;BME280;21820;51.112;13.762;2023-07-31T12:09:12;98855.38;;;25.04;57.43
35704;BME280;21820;51.112;13.762;2023-07-31T12:11:42;98853.34;;;24.77;52.92
35704;BME280;21820;51.112;13.762;2023-07-31T12:14:07;98847.00;;;24.63;53.16
35704;BME280;21820;51.112;13.762;2023-07-31T12:16:34;98836.47;;;24.48;52.42
35704;BME280;21820;51.112;13.762;2023-07-31T12:18:59;98857.69;;;24.62;53.04
35704;BME280;21820;51.112;13.762;2023-07-31T12:21:25;98842.81;;;24.77;56.05
35704;BME280;21820;51.112;13.762;2023-07-31T12:23:52;98847.03;;;24.86;56.88
35704;BME280;21820;51.112;13.762;2023-07-31T12:26:18;98835.78;;;24.92;56.48
35704;BME280;21820;51.112;13.762;2023-07-31T12:28:48;98835.41;;;24.95;57.01
35704;BME280;21820;51.112;13.762;2023-07-31T12:33:39;98825.53;;;24.97;57.22
35704;BME280;21820;51.112;13.762;2023-07-31T12:36:15;98814.19;;;24.96;57.61
35704;BME280;21820;51.112;13.762;2023-07-31T12:38:41;98807.13;;;24.97;57.14
35704;BME280;21820;51.112;13.762;2023-07-31T12:41:06;98800.31;;;24.88;57.44
35704;BME280;21820;51.112;13.762;2023-07-31T12:43:32;98818.63;;;24.96;57.17
35704;BME280;21820;51.112;13.762;2023-07-31T12:45:57;98807.78;;;24.99;57.70
35704;BME280;21820;51.112;13.762;2023-07-31T12:48:23;98804.13;;;25.00;57.84
35704;BME280;21820;51.112;13.762;2023-07-31T12:50:48;98792.78;;;24.99;57.67
35704;BME280;21820;51.112;13.762;2023-07-31T12:53:14;98794.44;;;25.00;57.59
35704;BME280;21820;51.112;13.762;2023-07-31T12:55:39;98791.84;;;24.78;54.06
35704;BME280;21820;51.112;13.762;2023-07-31T12:58:05;98774.31;;;24.56;52.75
35704;BME280;21820;51.112;13.762;2023-07-31T13:00:30;98780.84;;;24.60;52.55
35704;BME280;21820;51.112;13.762;2023-07-31T13:02:55;98782.19;;;24.56;51.73
35704;BME280;21820;51.112;13.762;2023-07-31T13:05:20;98778.00;;;24.69;55.98
35704;BME280;21820;51.112;13.762;2023-07-31T13:07:46;98767.88;;;24.81;56.50
35704;BME280;21820;51.112;13.762;2023-07-31T13:10:12;98751.16;;;24.74;56.97